Etusivu
METAR-TAF:

METAR-TAF

Lentoasemat :

Takigahara, Japani

Leveyspiiri: 35-19N, Pituuspiiri: 138-52E, korkeus merenpinnasta: 680 m

Tämänhetkinen sää

Tämä raportti tehtiin 2 tuntia ja 9 minuuttia sitten, kello 22.03 UTC
Tuuli 3 kn etelästä, vaihdellen idän/kaakon ja etelän/lounaan välillä
Lämpötila 12°C
Kosteus 94%
Ilmanpaine 1012 hPa
Näkyvyys: 6000 m
Hajanaisia pilviä alle 100 ft:n korkeudessa
Hajonneita pilviä 800 ft:n korkeudessa
Hajonneita pilviä 1000 ft:n korkeudessa
heikkoja vesikuuroja

METAR: RJAT 162203Z 17003KT 110V210 6000 -SHRA SCT000 BKN008 BKN010 12/11 Q1012 RMK 3ST000 5ST008 6CU010 A2990

Aika: 09:12 (00:12 UTC)


TAF: puuttuu

Säähavainnot ja -ennusteet yli 4000 lentoasemalta (METAR- ja TAF-raportit).

Käytössä olevat sääasemat on merkitty karttaan keltaisilla ja punaisilla pisteillä.

Aseta hiiri pisteen päälle nähdäksesi sääaseman nimen.

Klikkaa sitten nähdäksesi säähavainnot ja -ennusteet.

Kartan vaihtaminen: klikkaa mustalla rastilla varustettuja vihreitä pisteitä, niin voit zoomata sisään; viivalla varustettua vihreää pistettä, niin voit zoomata ulos tai vihreitä nuolia, niin pääset viereisille kartoille.


METAR-TAF: